Ollie, Iowa
Current Conditions -  °F | °C
As of 4:15 AM on Friday 31 Oct 2014 (Local Time) from KFFL Reporting Station
Broken Clouds Broken Clouds  
Wind Chill: 29°   Ceiling: 4600
Heat Index: 39°   Visibility: NA
Dew Point: 23°   Wind: 22mph
Humidity: 52%   Direction: 340°NNW
Pressure: 30.25"   Gusts: NA
Location:  41.2°N, 92.09°W
Report Text: KFFL 310915Z AUTO 34019KT BKN046 04/M05 A3025 RMK AO2
Loading
Personal Weather Stations






























Interactive Weather Map
Tropical Storm Tracking
New forecast layout! Learn more

10-Day Weather Forecast

Advertisements
Track Severe Weather on mobile